x

South Hatteras - 225 South Of Cape Hatteras (41002) Wave Buoy

1:50am - Tue 21st Apr 2015 All times are EDT. -4 hours from GMT.

  • Sig Wave height 5.2ft
  • Swell Direction
  • Peak Period 6s
  • Average Period 5s
  • Wind
    20mph, 27mph gusts
  • Sea Temp 72°f
  • Air Temp 72°f
  • Sea Pressure 1012.1mb
  • South Hatteras - 225 South Of Cape Hatteras
  • South Hatteras - 225 South Of Cape Hatteras

More Historic Weather Station data

Upgrade to MSW Pro to gain access to the past 30 days of data for over 8000 Wavebouys and Weather Stations around the globe.

Join Pro

Comparision Forecast

View Surf forecast
   
Tue 04/21 1:50am 5ft 6s 5s 20 27 mph 1012.1mb 72f 72f
12:50am 5ft 6s 5s 20 22 mph 1012.3mb 73f 72f
Mon 04/20 11:50pm 4.5ft 5s 5s 20 25 mph 1013.4mb 73f 73f
10:50pm 4.5ft 6s 5s 20 25 mph 1012.7mb 73f 73f
9:50pm 4.5ft 7s 5s 16 20 mph 1012.9mb 73f 74f
8:50pm 4.5ft 8s 5s 16 18 mph 1011.8mb 73f 74f
7:50pm 4.5ft 15s 5s 16 18 mph 1011.5mb 73f 74f
6:50pm 4.5ft 6s 5s 18 22 mph 1011.5mb 73f 74f
5:50pm 4.5ft 14s 5s 18 22 mph 1011.5mb 73f 74f
4:50pm 4ft 15s 5s 16 18 mph 1011.9mb 73f 73f
3:50pm 4ft 15s 5s 16 18 mph 1011.9mb 73f 73f
2:50pm 4.5ft 5s 5s 9 13 mph 1012.8mb 73f 70f
1:50pm 4ft 5s 5s 18 22 mph 1013.1mb 73f 74f
12:50pm 4.5ft 5s 5s 18 22 mph 1013.1mb 73f 74f
11:50am 4.5ft 5s 5s 20 22 mph 1013.5mb 73f 74f
10:50am 4.5ft 5s 5s 22 25 mph 1013.3mb 73f 74f
9:50am 4.5ft 15s 5s 18 20 mph 1013.3mb 74f 74f
8:50am 5ft 5s 5s 20 25 mph 1013.2mb 74f 74f
7:50am 4.5ft 6s 5s 22 27 mph 1012.8mb 74f 74f
6:50am 4.5ft 6s 5s 20 22 mph 1012.9mb 74f 74f
5:50am 4ft 6s 5s 18 22 mph 1012.5mb 75f 73f
4:50am 4ft 13s 5s 16 20 mph 1012.6mb 75f 73f
3:50am 4ft 5s 5s 16 18 mph 1012.8mb 75f 73f
2:50am 3.5ft 8s 5s 16 20 mph 1013.7mb 75f 73f
1:50am 4ft 13s 5s 18 20 mph 1013.6mb 75f 73f
12:50am 4ft 13s 6s 18 20 mph 1014.3mb 75f 73f
Sun 04/19 11:50pm 3.5ft 14s 5s 16 18 mph 1014.8mb 75f 73f
10:50pm 4ft 14s 6s 13 16 mph 1015.3mb 75f 73f
9:50pm 4ft 12s 5s 13 16 mph 1015mb 75f 73f
8:50pm 4ft 11s 6s 13 16 mph 1015.2mb 75f 73f
7:50pm 4.5ft 11s 6s 13 16 mph 1014.9mb 75f 73f
6:50pm 4.5ft 12s 6s 13 16 mph 1015.1mb 75f 73f
5:50pm 4.5ft 13s 6s 16
mph
1015mb 75f 73f
4:50pm 4.5ft 12s 6s 16 18 mph 1014.8mb 75f 73f
3:50pm 4.5ft 12s 6s 16 20 mph 1015.1mb 75f 73f
2:50pm 4.5ft 14s 6s 16 18 mph 1015.6mb 75f 73f
1:50pm 4ft 12s 6s 13 16 mph 1016mb 75f 73f
12:50pm 4.5ft 13s 7s 13 18 mph 1016.1mb 75f 73f
11:50am 4ft 12s 7s 11 13 mph 1016.8mb 75f 73f
10:50am 4.5ft 11s 7s 11 13 mph 1016.8mb 75f 73f
9:50am 5ft 13s 7s 9 11 mph 1016.3mb 75f 72f
8:50am 4.5ft 13s 6s 9 11 mph 1016mb 75f 72f
7:50am 4.5ft 12s 7s 11 13 mph 1015.9mb 75f 72f
6:50am 4.5ft 14s 7s 9 13 mph 1015.5mb 75f 72f
5:50am 4.5ft 13s 7s 11 13 mph 1015.2mb 75f 72f
4:50am 4ft 14s 7s 11 13 mph 1014.9mb 75f 72f
3:50am 5ft 14s 8s 7 9 mph 1014.6mb 75f 72f
2:50am 4.5ft 14s 7s 7 9 mph 1014.7mb 75f 72f
1:50am 4.5ft 14s 7s 4 7 mph 1014.7mb 75f 72f
12:50am 5ft 14s 8s 4
mph
1015.2mb 75f 72f
Sat 04/18 11:50pm 5ft 14s 7s 2 4 mph 1015.3mb 75f 72f
10:50pm 4.5ft 12s 7s 4
mph
1015.3mb 75f 72f
9:50pm 5ft 9s 7s 4 7 mph 1015.2mb 75f 72f
8:50pm 5ft 9s 7s 7
mph
1014.6mb 75f 72f
7:50pm 4.5ft 11s 7s 4
mph
1014.2mb 75f 72f
6:50pm 5ft 11s 7s 4 7 mph 1013.9mb 75f 72f
5:50pm 5ft 11s 7s 4
mph
1013.9mb 75f 72f
4:50pm 5ft 11s 7s 4 7 mph 1013.8mb 75f 72f
3:50pm 5ft 11s 7s 7
mph
1013.7mb 74f 71f
2:50pm 5.5ft 9s 7s 9 11 mph 1014.4mb 74f 70f
1:50pm 5.5ft 12s 7s 11
mph
1015mb 74f 70f
12:50pm 5.5ft 11s 7s 11 18 mph 1014.9mb 74f 71f
11:50am 5ft 11s 7s 9 11 mph 1014.8mb 74f 73f
10:50am 5.5ft 8s 7s 11 13 mph 1014.8mb 74f 73f
9:50am 5.5ft 10s 7s 9 11 mph 1014.7mb 74f 73f
8:50am 5.5ft 11s 7s 7 9 mph 1014.3mb 74f 73f
7:50am 5.5ft 8s 7s 7 9 mph 1014.6mb 73f 73f
6:50am 5.5ft 8s 7s 7 9 mph 1014.2mb 73f 72f
5:50am 5.5ft 9s 7s 9 11 mph 1014.1mb 73f 73f
4:50am 5ft 8s 6s 9 11 mph 1013.9mb 73f 72f
3:50am 5ft 9s 7s 7 9 mph 1014.3mb 73f 72f
2:50am 5.5ft 10s 7s 7 9 mph 1014.3mb 73f 72f
1:50am 5ft 8s 6s 4 7 mph 1014.8mb 73f 72f
12:50am 5.5ft 8s 6s 2
mph
1015.3mb 73f 72f
Fri 04/17 11:50pm 6ft 10s 6s 2 4 mph 1015.6mb 73f 72f
10:50pm 6ft 10s 6s 2 4 mph 1015.9mb 73f 72f
9:50pm 6ft 10s 6s 2 7 mph 1016mb 73f 72f
8:50pm 6.5ft 9s 7s 4 7 mph 1015.6mb 73f 71f
7:50pm 7ft 8s 7s 7 9 mph 1015.3mb 73f 71f
6:50pm 7ft 9s 7s 4 7 mph 1015mb 73f 72f
5:50pm 7ft 10s 7s 7 9 mph 1015.2mb 73f 72f
4:50pm 6ft 10s 6s 9 13 mph 1015.5mb 73f 73f
3:50pm 7ft 9s 6s 11 13 mph 1015.6mb 73f 72f
2:50pm 6.5ft 9s 6s 16 20 mph 1016.3mb 73f 72f
1:50pm 6.5ft 8s 6s 16 18 mph 1017.2mb 73f 72f
12:50pm 7ft 7s 6s 16 18 mph 1017.6mb 73f 72f
11:50am 8ft 8s 6s 20 22 mph 1017.8mb 72f 72f
10:50am 8ft 8s 6s 20 22 mph 1018.3mb 72f 72f
9:50am 8ft 8s 6s 18 22 mph 1018.4mb 72f 72f
8:50am 8ft 7s 6s 18 22 mph 1018.7mb 72f 71f
7:50am 8ft 8s 6s 18 22 mph 1019mb 72f 72f
6:50am 8ft 8s 6s 18 22 mph 1018.9mb 72f 71f